createdAt,value
2022-08-31T00:00:29.554Z,18.40
2022-08-31T00:03:15.002Z,18.30
2022-08-31T00:05:42.900Z,18.30
2022-08-31T00:08:12.205Z,18.30
2022-08-31T00:10:41.985Z,18.30
2022-08-31T00:13:13.713Z,18.20
2022-08-31T00:15:41.977Z,18.20
2022-08-31T00:18:10.363Z,18.20
2022-08-31T00:20:38.364Z,18.20
2022-08-31T00:23:08.767Z,18.10
2022-08-31T00:25:40.680Z,18.10
2022-08-31T00:28:10.586Z,18.00
2022-08-31T00:30:38.839Z,18.00
2022-08-31T00:33:07.666Z,18.00
2022-08-31T00:35:37.504Z,18.00
2022-08-31T00:38:05.954Z,18.00
2022-08-31T00:40:44.275Z,18.00
2022-08-31T00:43:29.758Z,17.90
2022-08-31T00:45:57.738Z,17.90
2022-08-31T00:48:25.669Z,17.90
2022-08-31T00:50:53.794Z,17.90
2022-08-31T00:53:21.899Z,17.80
2022-08-31T00:55:49.881Z,17.80
2022-08-31T00:58:19.309Z,17.80
2022-08-31T01:00:49.045Z,17.80
2022-08-31T01:03:18.666Z,17.70
2022-08-31T01:05:47.210Z,17.70
2022-08-31T01:08:15.393Z,17.70
2022-08-31T01:10:45.737Z,17.70
2022-08-31T01:13:16.635Z,17.60
2022-08-31T01:15:54.013Z,17.60
2022-08-31T01:18:24.395Z,17.60
2022-08-31T01:21:01.545Z,17.50
2022-08-31T01:23:34.430Z,17.50
2022-08-31T01:26:03.775Z,17.50
2022-08-31T01:28:31.576Z,17.50
2022-08-31T01:31:01.927Z,17.50
2022-08-31T01:33:30.712Z,17.40
2022-08-31T01:35:59.934Z,17.40
2022-08-31T01:38:29.015Z,17.40
2022-08-31T01:41:01.882Z,17.40
2022-08-31T01:43:33.847Z,17.30
2022-08-31T01:46:02.230Z,17.30
2022-08-31T01:48:30.284Z,17.30
2022-08-31T01:50:58.182Z,17.30
2022-08-31T01:53:26.059Z,17.30
2022-08-31T01:55:53.878Z,17.30
2022-08-31T01:58:23.143Z,17.20
2022-08-31T02:00:51.214Z,17.20
2022-08-31T02:03:19.225Z,17.20
2022-08-31T02:05:47.262Z,17.20
2022-08-31T02:08:15.112Z,17.10
2022-08-31T02:10:42.946Z,17.10
2022-08-31T02:13:10.782Z,17.10
2022-08-31T02:15:40.235Z,17.10
2022-08-31T02:18:08.711Z,17.10
2022-08-31T02:20:39.920Z,17.00
2022-08-31T02:23:07.743Z,17.00
2022-08-31T02:25:35.617Z,17.00
2022-08-31T02:28:03.864Z,16.90
2022-08-31T02:30:31.792Z,16.90
2022-08-31T02:33:01.019Z,17.00
2022-08-31T02:35:28.914Z,16.90
2022-08-31T02:37:56.857Z,16.90
2022-08-31T02:40:25.734Z,16.80
2022-08-31T02:42:54.335Z,16.80
2022-08-31T02:45:22.605Z,16.80
2022-08-31T02:47:50.471Z,16.80
2022-08-31T02:50:19.804Z,16.80
2022-08-31T02:52:48.601Z,16.80
2022-08-31T02:55:16.545Z,16.70
2022-08-31T02:57:45.649Z,16.70
2022-08-31T03:00:14.687Z,16.70
2022-08-31T03:02:43.669Z,16.70
2022-08-31T03:05:11.731Z,16.70
2022-08-31T03:07:41.358Z,16.60
2022-08-31T03:10:12.069Z,16.60
2022-08-31T03:12:39.969Z,16.60
2022-08-31T03:15:08.464Z,16.60
2022-08-31T03:17:36.287Z,16.50
2022-08-31T03:20:06.615Z,16.50
2022-08-31T03:22:35.135Z,16.50
2022-08-31T03:25:06.816Z,16.50
2022-08-31T03:27:36.141Z,16.50
2022-08-31T03:30:05.787Z,16.50
2022-08-31T03:32:33.718Z,16.40
2022-08-31T03:35:02.371Z,16.40
2022-08-31T03:37:30.361Z,16.40
2022-08-31T03:39:58.682Z,16.40
2022-08-31T03:42:28.865Z,16.40
2022-08-31T03:45:00.003Z,16.30
2022-08-31T03:47:28.279Z,16.30
2022-08-31T03:49:56.470Z,16.30
2022-08-31T03:52:24.421Z,16.30
2022-08-31T03:54:53.088Z,16.30
2022-08-31T03:57:20.924Z,16.20
2022-08-31T03:59:53.967Z,16.20
2022-08-31T04:02:22.631Z,16.20
2022-08-31T04:04:51.727Z,16.20
2022-08-31T04:07:19.760Z,16.20
2022-08-31T04:09:48.603Z,16.20
2022-08-31T04:12:17.445Z,16.10
2022-08-31T04:14:45.377Z,16.10
2022-08-31T04:17:15.150Z,16.10
2022-08-31T04:19:42.966Z,16.10
2022-08-31T04:22:10.787Z,16.10
2022-08-31T04:24:38.710Z,16.10
2022-08-31T04:27:06.617Z,16.10
2022-08-31T04:29:34.499Z,16.00
2022-08-31T04:32:02.355Z,16.00
2022-08-31T04:34:31.637Z,16.00
2022-08-31T04:36:59.480Z,16.00
2022-08-31T04:39:28.409Z,15.90
2022-08-31T04:42:00.385Z,15.90
2022-08-31T04:44:28.691Z,15.90
2022-08-31T04:46:57.317Z,15.90
2022-08-31T04:49:25.151Z,15.90
2022-08-31T04:51:54.404Z,15.90
2022-08-31T04:54:22.634Z,15.90
2022-08-31T04:56:50.458Z,15.80
2022-08-31T04:59:19.128Z,15.80
2022-08-31T05:01:47.371Z,15.80
2022-08-31T05:04:16.365Z,15.80
2022-08-31T05:06:46.826Z,15.80
2022-08-31T05:09:18.997Z,15.80
2022-08-31T05:11:47.236Z,15.80
2022-08-31T05:14:15.074Z,15.70
2022-08-31T05:16:43.580Z,15.70
2022-08-31T05:19:11.693Z,15.70
2022-08-31T05:21:41.070Z,15.70
2022-08-31T05:24:10.955Z,15.70
2022-08-31T05:26:44.297Z,15.70
2022-08-31T05:29:14.286Z,15.70
2022-08-31T05:31:43.393Z,15.70
2022-08-31T05:34:12.827Z,15.60
2022-08-31T05:36:41.629Z,15.60
2022-08-31T05:39:11.621Z,15.60
2022-08-31T05:41:42.355Z,15.60
2022-08-31T05:44:10.966Z,15.60
2022-08-31T05:46:39.275Z,15.60
2022-08-31T05:49:08.515Z,15.60
2022-08-31T05:51:39.368Z,15.60
2022-08-31T05:54:08.419Z,15.60
2022-08-31T05:56:36.957Z,15.60
2022-08-31T05:59:06.723Z,15.60
2022-08-31T06:01:37.661Z,15.60
2022-08-31T06:04:06.680Z,15.60
2022-08-31T06:06:34.870Z,15.60
2022-08-31T06:09:02.795Z,15.60
2022-08-31T06:11:34.654Z,15.60
2022-08-31T06:14:05.651Z,15.60
2022-08-31T06:16:36.019Z,15.50
2022-08-31T06:19:06.906Z,15.50
2022-08-31T06:21:36.657Z,15.60
2022-08-31T06:24:06.472Z,15.60
2022-08-31T06:26:35.938Z,15.60
2022-08-31T06:29:06.874Z,15.60
2022-08-31T06:31:38.063Z,15.60
2022-08-31T06:34:07.571Z,15.60
2022-08-31T06:36:35.986Z,15.60
2022-08-31T06:39:04.998Z,15.60
2022-08-31T06:41:36.799Z,15.60
2022-08-31T06:44:06.643Z,15.60
2022-08-31T06:46:37.297Z,15.60
2022-08-31T06:49:05.704Z,15.60
2022-08-31T06:51:38.077Z,15.60
2022-08-31T06:54:27.871Z,15.70
2022-08-31T06:56:57.384Z,15.70
2022-08-31T06:59:28.457Z,15.70
2022-08-31T07:01:59.229Z,15.80
2022-08-31T07:04:27.979Z,15.80
2022-08-31T07:06:55.946Z,15.90
2022-08-31T07:09:25.072Z,15.90
2022-08-31T07:11:53.665Z,16.00
2022-08-31T07:14:23.656Z,16.00
2022-08-31T07:16:53.228Z,16.10
2022-08-31T07:19:22.958Z,16.10
2022-08-31T07:21:53.209Z,16.10
2022-08-31T07:24:25.149Z,16.20
2022-08-31T07:26:57.909Z,16.20
2022-08-31T07:29:30.090Z,16.30
2022-08-31T07:31:59.218Z,16.40
2022-08-31T07:34:30.670Z,16.40
2022-08-31T07:37:18.504Z,16.50
2022-08-31T07:40:06.777Z,16.60
2022-08-31T07:42:39.878Z,16.60
2022-08-31T07:45:12.142Z,16.70
2022-08-31T07:47:46.964Z,16.80
2022-08-31T07:50:18.437Z,16.80
2022-08-31T07:52:51.652Z,16.90
2022-08-31T07:55:20.188Z,17.00
2022-08-31T07:57:49.035Z,17.10
2022-08-31T08:00:21.375Z,17.10
2022-08-31T08:02:53.295Z,17.20
2022-08-31T08:05:27.219Z,17.20
2022-08-31T08:08:09.416Z,17.30
2022-08-31T08:10:41.812Z,17.40
2022-08-31T08:13:12.421Z,17.50
2022-08-31T08:15:40.700Z,17.50
2022-08-31T08:18:10.772Z,17.60
2022-08-31T08:20:40.540Z,17.60
2022-08-31T08:23:13.558Z,17.70
2022-08-31T08:25:43.607Z,17.80
2022-08-31T08:28:38.225Z,17.80
2022-08-31T08:31:05.999Z,17.90
2022-08-31T08:33:36.053Z,18.00
2022-08-31T08:36:08.252Z,18.00
2022-08-31T08:38:37.983Z,18.10
2022-08-31T08:41:08.392Z,18.20
2022-08-31T08:43:40.401Z,18.30
2022-08-31T08:46:33.627Z,18.30
2022-08-31T08:49:13.324Z,18.40
2022-08-31T08:51:43.550Z,18.50
2022-08-31T08:54:14.059Z,18.60
2022-08-31T08:56:49.046Z,18.60
2022-08-31T08:59:20.050Z,18.70
2022-08-31T09:01:53.030Z,18.80
2022-08-31T09:04:34.288Z,18.90
2022-08-31T09:07:21.066Z,19.00
2022-08-31T09:09:57.207Z,19.00
2022-08-31T09:12:33.818Z,19.10
2022-08-31T09:15:18.985Z,19.20
2022-08-31T09:17:59.887Z,19.30
2022-08-31T09:20:28.299Z,19.40
2022-08-31T09:22:58.635Z,19.50
2022-08-31T09:25:33.200Z,19.50
2022-08-31T09:28:04.030Z,19.60
2022-08-31T09:30:52.158Z,19.70
2022-08-31T09:33:22.093Z,19.80
2022-08-31T09:35:56.578Z,19.90
2022-08-31T09:38:31.054Z,20.00
2022-08-31T09:40:59.715Z,20.10
2022-08-31T09:43:38.635Z,20.20
2022-08-31T09:46:11.672Z,20.20
2022-08-31T09:48:51.608Z,20.30
2022-08-31T09:51:25.501Z,20.40
2022-08-31T09:54:14.337Z,20.50
2022-08-31T09:56:56.094Z,20.60
2022-08-31T09:59:37.591Z,20.70
2022-08-31T10:02:11.223Z,20.70
2022-08-31T10:04:51.001Z,20.80
2022-08-31T10:07:38.698Z,20.90
2022-08-31T10:10:12.614Z,21.00
2022-08-31T10:13:01.551Z,21.10
2022-08-31T10:15:35.411Z,21.20
2022-08-31T10:18:11.905Z,21.30
2022-08-31T10:20:46.446Z,21.40
2022-08-31T10:23:21.612Z,21.50
2022-08-31T10:25:57.488Z,21.60
2022-08-31T10:28:32.767Z,21.70
2022-08-31T10:31:04.471Z,21.70
2022-08-31T10:33:52.428Z,21.80
2022-08-31T10:36:20.600Z,21.90
2022-08-31T10:38:50.701Z,22.00
2022-08-31T10:41:27.811Z,22.10
2022-08-31T10:44:03.322Z,22.20
2022-08-31T10:46:33.186Z,22.20
2022-08-31T10:49:04.088Z,22.30
2022-08-31T10:51:42.058Z,22.40
2022-08-31T10:54:28.231Z,22.50
2022-08-31T10:57:07.491Z,22.60
2022-08-31T10:59:45.900Z,22.60
2022-08-31T11:02:34.870Z,22.70
2022-08-31T11:05:12.166Z,22.80
2022-08-31T11:07:51.175Z,22.90
2022-08-31T11:10:27.229Z,23.00
2022-08-31T11:13:00.859Z,23.00
2022-08-31T11:15:58.269Z,23.10
2022-08-31T11:19:11.801Z,23.20
2022-08-31T11:22:07.669Z,23.30
2022-08-31T11:25:03.355Z,23.40
2022-08-31T11:27:36.986Z,23.50
2022-08-31T11:30:13.965Z,23.50
2022-08-31T11:32:50.833Z,23.60
2022-08-31T11:36:04.081Z,23.70
2022-08-31T11:38:52.241Z,23.70
2022-08-31T11:41:39.235Z,23.80
2022-08-31T11:44:08.863Z,23.90
2022-08-31T11:46:53.079Z,23.90
2022-08-31T11:49:45.993Z,24.00
2022-08-31T11:52:34.433Z,24.10
2022-08-31T11:55:11.299Z,24.10
2022-08-31T11:58:11.324Z,24.20
2022-08-31T12:00:44.693Z,24.30
2022-08-31T12:03:45.623Z,24.30
2022-08-31T12:06:47.834Z,24.40
2022-08-31T12:09:29.539Z,24.50
2022-08-31T12:12:07.544Z,24.50
2022-08-31T12:14:46.241Z,24.60
2022-08-31T12:17:21.729Z,24.60
2022-08-31T12:20:02.093Z,24.70
2022-08-31T12:23:31.401Z,24.80
2022-08-31T12:26:10.112Z,24.80
2022-08-31T12:28:54.027Z,24.90
2022-08-31T12:31:22.124Z,25.00
2022-08-31T12:34:06.116Z,25.00
2022-08-31T12:36:37.402Z,25.10
2022-08-31T12:39:08.458Z,25.10
2022-08-31T12:41:38.345Z,25.10
2022-08-31T12:44:06.914Z,25.20
2022-08-31T12:47:02.495Z,25.30
2022-08-31T12:49:56.725Z,25.30
2022-08-31T12:52:43.669Z,25.40
2022-08-31T12:55:24.788Z,25.40
2022-08-31T12:58:13.661Z,25.50
2022-08-31T13:00:43.462Z,25.50
2022-08-31T13:03:21.071Z,25.60
2022-08-31T13:06:03.409Z,25.60
2022-08-31T13:08:37.867Z,25.60
2022-08-31T13:11:20.792Z,25.60
2022-08-31T13:13:51.259Z,25.70
2022-08-31T13:16:19.630Z,25.70
2022-08-31T13:18:48.407Z,25.70
2022-08-31T13:21:21.931Z,25.80
2022-08-31T13:23:51.717Z,25.80
2022-08-31T13:26:23.019Z,25.80
2022-08-31T13:28:52.005Z,25.90
2022-08-31T13:31:22.804Z,25.90
2022-08-31T13:33:51.467Z,26.00
2022-08-31T13:36:32.598Z,26.00
2022-08-31T13:39:03.894Z,26.00
2022-08-31T13:41:36.436Z,26.10
2022-08-31T13:44:08.978Z,26.10
2022-08-31T13:46:43.337Z,26.20
2022-08-31T13:49:35.258Z,26.30
2022-08-31T13:52:04.723Z,26.40
2022-08-31T13:54:35.978Z,26.50
2022-08-31T13:57:12.518Z,26.50
2022-08-31T13:59:41.930Z,26.60
2022-08-31T14:02:37.592Z,26.70
2022-08-31T14:05:08.553Z,26.80
2022-08-31T14:08:04.260Z,26.80
2022-08-31T14:10:40.596Z,26.90
2022-08-31T14:13:19.183Z,27.00
2022-08-31T14:15:56.480Z,27.10
2022-08-31T14:18:28.538Z,27.20
2022-08-31T14:21:22.704Z,27.30
2022-08-31T14:23:53.177Z,27.40
2022-08-31T14:26:28.036Z,27.50
2022-08-31T14:28:58.475Z,27.60
2022-08-31T14:31:29.861Z,27.70
2022-08-31T14:34:23.965Z,27.70
2022-08-31T14:36:57.398Z,27.80
2022-08-31T14:39:30.818Z,27.90
2022-08-31T14:42:02.109Z,28.00
2022-08-31T14:44:34.032Z,28.10
2022-08-31T14:47:02.670Z,28.20
2022-08-31T14:49:35.801Z,28.20
2022-08-31T14:52:06.189Z,28.30
2022-08-31T14:54:36.972Z,28.30
2022-08-31T14:57:12.439Z,28.30
2022-08-31T14:59:43.378Z,28.40
2022-08-31T15:02:13.171Z,28.50
2022-08-31T15:04:45.523Z,28.60
2022-08-31T15:07:14.996Z,28.60
2022-08-31T15:09:43.662Z,28.70
2022-08-31T15:12:14.942Z,28.70
2022-08-31T15:14:45.099Z,28.80
2022-08-31T15:17:19.594Z,28.80
2022-08-31T15:19:50.229Z,28.80
2022-08-31T15:22:19.123Z,28.80
2022-08-31T15:24:47.214Z,28.90
2022-08-31T15:27:17.386Z,28.90
2022-08-31T15:29:48.607Z,28.90
2022-08-31T15:32:18.564Z,28.90
2022-08-31T15:34:57.638Z,29.00
2022-08-31T15:37:27.370Z,28.90
2022-08-31T15:40:00.345Z,29.00
2022-08-31T15:42:31.373Z,29.00
2022-08-31T15:45:00.367Z,29.10
2022-08-31T15:48:03.817Z,29.00
2022-08-31T15:50:32.587Z,29.00
2022-08-31T15:53:08.285Z,29.00
2022-08-31T15:55:40.957Z,29.00
2022-08-31T15:58:10.844Z,28.90
2022-08-31T16:00:41.911Z,28.90
2022-08-31T16:03:10.937Z,28.90
2022-08-31T16:05:39.886Z,28.80
2022-08-31T16:08:10.601Z,28.90
2022-08-31T16:10:39.658Z,28.80
2022-08-31T16:13:09.377Z,28.80
2022-08-31T16:15:38.889Z,28.80
2022-08-31T16:18:08.015Z,28.70
2022-08-31T16:20:36.135Z,28.70
2022-08-31T16:23:06.986Z,28.70
2022-08-31T16:25:47.577Z,28.60
2022-08-31T16:28:17.253Z,28.60
2022-08-31T16:30:46.585Z,28.50
2022-08-31T16:33:14.540Z,28.50
2022-08-31T16:35:45.825Z,28.40
2022-08-31T16:38:14.268Z,28.30
2022-08-31T16:40:42.583Z,28.20
2022-08-31T16:43:11.144Z,28.20
2022-08-31T16:45:39.952Z,28.10
2022-08-31T16:48:27.722Z,28.00
2022-08-31T16:50:58.001Z,27.90
2022-08-31T16:53:25.953Z,27.80
2022-08-31T16:55:54.197Z,27.70
2022-08-31T16:58:40.937Z,27.60
2022-08-31T17:01:14.728Z,27.50
2022-08-31T17:03:46.724Z,27.40
2022-08-31T17:06:14.982Z,27.30
2022-08-31T17:08:45.564Z,27.20
2022-08-31T17:11:16.571Z,27.10
2022-08-31T17:13:47.511Z,27.00
2022-08-31T17:16:21.276Z,26.90
2022-08-31T17:18:52.553Z,26.80
2022-08-31T17:21:22.096Z,26.80
2022-08-31T17:23:52.385Z,26.70
2022-08-31T17:26:20.530Z,26.60
2022-08-31T17:28:54.836Z,26.50
2022-08-31T17:31:24.753Z,26.40
2022-08-31T17:33:58.220Z,26.30
2022-08-31T17:36:31.477Z,26.20
2022-08-31T17:39:02.188Z,26.10
2022-08-31T17:41:30.256Z,26.00
2022-08-31T17:43:59.978Z,25.90
2022-08-31T17:46:28.489Z,25.80
2022-08-31T17:48:57.981Z,25.70
2022-08-31T17:51:28.521Z,25.60
2022-08-31T17:53:58.152Z,25.50
2022-08-31T17:56:28.529Z,25.40
2022-08-31T17:58:56.409Z,25.40
2022-08-31T18:01:30.431Z,25.30
2022-08-31T18:04:01.670Z,25.20
2022-08-31T18:06:30.189Z,25.10
2022-08-31T18:08:59.042Z,25.00
2022-08-31T18:11:28.178Z,24.90
2022-08-31T18:13:56.996Z,24.80
2022-08-31T18:16:24.956Z,24.80
2022-08-31T18:18:53.007Z,24.60
2022-08-31T18:21:24.495Z,24.60
2022-08-31T18:23:53.734Z,24.50
2022-08-31T18:26:23.933Z,24.30
2022-08-31T18:28:52.914Z,24.30
2022-08-31T18:31:30.529Z,24.20
2022-08-31T18:33:59.217Z,24.10
2022-08-31T18:36:30.992Z,24.00
2022-08-31T18:39:00.378Z,23.90
2022-08-31T18:41:47.506Z,23.80
2022-08-31T18:44:35.414Z,23.70
2022-08-31T18:47:06.401Z,23.70
2022-08-31T18:49:36.602Z,23.50
2022-08-31T18:52:06.972Z,23.50
2022-08-31T18:54:35.297Z,23.40
2022-08-31T18:57:03.238Z,23.30
2022-08-31T18:59:31.274Z,23.20
2022-08-31T19:02:00.091Z,23.10
2022-08-31T19:04:28.181Z,23.00
2022-08-31T19:06:56.161Z,23.00
2022-08-31T19:09:26.086Z,22.90
2022-08-31T19:12:02.143Z,22.80
2022-08-31T19:14:32.609Z,22.70
2022-08-31T19:17:03.899Z,22.60
2022-08-31T19:19:33.049Z,22.60
2022-08-31T19:22:00.954Z,22.50
2022-08-31T19:24:30.255Z,22.40
2022-08-31T19:26:59.905Z,22.30
2022-08-31T19:29:31.223Z,22.30
2022-08-31T19:32:02.066Z,22.20
2022-08-31T19:34:32.226Z,22.10
2022-08-31T19:37:01.471Z,22.10
2022-08-31T19:39:36.976Z,22.00
2022-08-31T19:42:09.553Z,21.90
2022-08-31T19:44:55.830Z,21.90
2022-08-31T19:47:25.575Z,21.80
2022-08-31T19:49:53.749Z,21.70
2022-08-31T19:52:24.260Z,21.70
2022-08-31T19:54:53.515Z,21.60
2022-08-31T19:57:22.389Z,21.60
2022-08-31T19:59:50.687Z,21.50
2022-08-31T20:02:18.752Z,21.50
2022-08-31T20:04:46.760Z,21.40
2022-08-31T20:07:14.735Z,21.40
2022-08-31T20:09:42.716Z,21.30
2022-08-31T20:12:12.285Z,21.30
2022-08-31T20:14:40.244Z,21.20
2022-08-31T20:17:09.742Z,21.20
2022-08-31T20:19:39.451Z,21.10
2022-08-31T20:22:08.138Z,21.00
2022-08-31T20:24:39.360Z,21.00
2022-08-31T20:27:18.407Z,20.90
2022-08-31T20:29:46.908Z,20.90
2022-08-31T20:32:14.844Z,20.80
2022-08-31T20:34:44.634Z,20.80
2022-08-31T20:37:12.800Z,20.70
2022-08-31T20:39:42.122Z,20.70
2022-08-31T20:42:10.406Z,20.70
2022-08-31T20:44:39.847Z,20.60
2022-08-31T20:47:26.936Z,20.60
2022-08-31T20:49:57.569Z,20.50
2022-08-31T20:52:27.860Z,20.50
2022-08-31T20:55:01.296Z,20.40
2022-08-31T20:57:30.436Z,20.40
2022-08-31T21:00:03.231Z,20.40
2022-08-31T21:02:32.246Z,20.30
2022-08-31T21:05:15.284Z,20.30
2022-08-31T21:07:48.276Z,20.20
2022-08-31T21:10:16.180Z,20.20
2022-08-31T21:12:48.949Z,20.20
2022-08-31T21:15:19.279Z,20.10
2022-08-31T21:17:49.241Z,20.00
2022-08-31T21:20:17.304Z,20.00
2022-08-31T21:22:45.330Z,19.90
2022-08-31T21:25:13.779Z,19.90
2022-08-31T21:27:41.792Z,19.90
2022-08-31T21:30:11.695Z,19.80
2022-08-31T21:32:41.164Z,19.80
2022-08-31T21:35:10.027Z,19.70
2022-08-31T21:37:38.073Z,19.70
2022-08-31T21:40:07.220Z,19.70
2022-08-31T21:42:35.208Z,19.60
2022-08-31T21:45:03.133Z,19.60
2022-08-31T21:47:31.149Z,19.60
2022-08-31T21:50:00.496Z,19.50
2022-08-31T21:52:28.414Z,19.50
2022-08-31T21:54:56.415Z,19.40
2022-08-31T21:57:25.621Z,19.40
2022-08-31T21:59:53.553Z,19.40
2022-08-31T22:02:21.475Z,19.40
2022-08-31T22:04:49.421Z,19.30
2022-08-31T22:07:18.662Z,19.30
2022-08-31T22:09:46.931Z,19.30
2022-08-31T22:12:14.932Z,19.20
2022-08-31T22:14:44.883Z,19.20
2022-08-31T22:17:13.042Z,19.10
2022-08-31T22:19:42.978Z,19.10
2022-08-31T22:22:13.236Z,19.10
2022-08-31T22:24:43.085Z,19.00
2022-08-31T22:27:12.122Z,19.00
2022-08-31T22:29:41.012Z,19.00
2022-08-31T22:32:12.077Z,19.00
2022-08-31T22:34:41.142Z,18.90
2022-08-31T22:37:11.703Z,18.90
2022-08-31T22:39:42.675Z,18.80
2022-08-31T22:42:12.025Z,18.80
2022-08-31T22:44:40.527Z,18.80
2022-08-31T22:47:08.469Z,18.80
2022-08-31T22:49:36.494Z,18.70
2022-08-31T22:52:04.993Z,18.70
2022-08-31T22:54:34.471Z,18.70
2022-08-31T22:57:03.757Z,18.70
2022-08-31T22:59:31.841Z,18.60
2022-08-31T23:02:03.556Z,18.60
2022-08-31T23:04:34.207Z,18.60
2022-08-31T23:07:03.555Z,18.50
2022-08-31T23:09:33.720Z,18.50
2022-08-31T23:12:05.057Z,18.50
2022-08-31T23:14:34.050Z,18.40
2022-08-31T23:17:04.061Z,18.40
2022-08-31T23:19:36.825Z,18.40
2022-08-31T23:22:09.183Z,18.30
2022-08-31T23:24:40.067Z,18.30
2022-08-31T23:27:10.664Z,18.20
2022-08-31T23:29:40.977Z,18.20
2022-08-31T23:32:11.114Z,18.20
2022-08-31T23:34:39.566Z,18.10
2022-08-31T23:37:10.231Z,18.10
2022-08-31T23:39:39.533Z,18.10
2022-08-31T23:42:11.983Z,18.00
2022-08-31T23:44:41.780Z,18.00
2022-08-31T23:47:10.941Z,18.00
2022-08-31T23:49:40.317Z,17.90
2022-08-31T23:52:08.617Z,17.90
2022-08-31T23:54:37.303Z,17.90
2022-08-31T23:57:19.250Z,17.80
